createdAt,value
2022-09-13T00:02:19.490Z,0.30
2022-09-13T00:04:46.370Z,0.50
2022-09-13T00:07:13.307Z,0.50
2022-09-13T00:09:40.446Z,0.65
2022-09-13T00:12:07.474Z,0.32
2022-09-13T00:14:34.407Z,0.50
2022-09-13T00:17:01.396Z,0.30
2022-09-13T00:19:28.318Z,0.43
2022-09-13T00:21:55.297Z,0.20
2022-09-13T00:24:22.209Z,0.28
2022-09-13T00:26:49.092Z,0.40
2022-09-13T00:29:16.183Z,0.40
2022-09-13T00:31:43.091Z,0.40
2022-09-13T00:34:10.084Z,0.40
2022-09-13T00:36:37.093Z,0.40
2022-09-13T00:39:04.015Z,0.30
2022-09-13T00:41:30.906Z,0.50
2022-09-13T00:44:00.066Z,0.30
2022-09-13T00:46:44.320Z,0.50
2022-09-13T00:49:29.860Z,0.38
2022-09-13T00:51:58.946Z,0.43
2022-09-13T00:54:27.695Z,0.47
2022-09-13T00:56:56.238Z,0.30
2022-09-13T00:59:26.751Z,0.30
2022-09-13T01:01:55.474Z,0.20
2022-09-13T01:04:24.291Z,0.40
2022-09-13T01:06:52.219Z,0.40
2022-09-13T01:09:19.115Z,0.35
2022-09-13T01:11:49.430Z,0.32
2022-09-13T01:14:19.614Z,0.52
2022-09-13T01:16:48.045Z,0.22
2022-09-13T01:19:15.625Z,0.50
2022-09-13T01:22:20.599Z,0.45
2022-09-13T01:25:10.650Z,0.45
2022-09-13T01:28:14.663Z,0.65
2022-09-13T01:30:44.483Z,0.50
2022-09-13T01:33:25.821Z,0.28
2022-09-13T01:36:16.083Z,0.20
2022-09-13T01:38:53.962Z,0.20
2022-09-13T01:41:24.864Z,0.65
2022-09-13T01:44:22.603Z,0.47
2022-09-13T01:46:57.705Z,0.38
2022-09-13T01:49:44.918Z,0.30
2022-09-13T01:52:25.832Z,0.40
2022-09-13T01:55:18.175Z,0.63
2022-09-13T01:58:14.803Z,0.50
2022-09-13T02:00:53.629Z,0.20
2022-09-13T02:03:34.643Z,0.55
2022-09-13T02:06:10.723Z,0.30
2022-09-13T02:11:10.746Z,0.30
2022-09-13T02:13:43.531Z,0.20
2022-09-13T02:16:14.978Z,0.20
2022-09-13T02:18:43.194Z,0.22
2022-09-13T02:21:13.512Z,0.15
2022-09-13T02:23:47.329Z,0.47
2022-09-13T02:26:14.475Z,0.35
2022-09-13T02:28:50.802Z,0.22
2022-09-13T02:31:20.358Z,0.20
2022-09-13T02:33:56.551Z,0.25
2022-09-13T02:36:26.228Z,0.40
2022-09-13T02:39:24.176Z,0.28
2022-09-13T02:42:03.208Z,0.35
2022-09-13T02:44:43.577Z,0.15
2022-09-13T02:47:25.623Z,0.20
2022-09-13T02:50:07.795Z,0.30
2022-09-13T02:52:50.385Z,0.40
2022-09-13T02:55:25.874Z,0.22
2022-09-13T02:58:15.827Z,0.52
2022-09-13T03:00:42.747Z,0.30
2022-09-13T03:03:11.363Z,0.20
2022-09-13T03:05:38.458Z,0.98
2022-09-13T03:08:05.888Z,0.38
2022-09-13T03:10:56.494Z,0.63
2022-09-13T03:14:02.236Z,0.80
2022-09-13T03:16:43.865Z,0.52
2022-09-13T03:19:48.928Z,0.73
2022-09-13T03:22:26.217Z,0.57
2022-09-13T03:24:56.283Z,0.77
2022-09-13T03:27:51.887Z,0.70
2022-09-13T03:30:19.140Z,0.50
2022-09-13T03:33:20.272Z,0.60
2022-09-13T03:35:57.389Z,0.43
2022-09-13T03:38:29.520Z,0.90
2022-09-13T03:41:07.666Z,0.80
2022-09-13T03:43:42.585Z,0.57
2022-09-13T03:46:12.640Z,0.70
2022-09-13T03:48:40.452Z,0.60
2022-09-13T03:51:07.468Z,0.50
2022-09-13T03:53:37.872Z,0.40
2022-09-13T03:56:18.892Z,0.80
2022-09-13T03:58:48.949Z,0.30
2022-09-13T04:01:18.750Z,0.70
2022-09-13T04:03:45.975Z,0.47
2022-09-13T04:06:12.905Z,0.50
2022-09-13T04:08:39.940Z,0.80
2022-09-13T04:11:07.191Z,1.02
2022-09-13T04:13:34.132Z,0.60
2022-09-13T04:16:02.520Z,0.73
2022-09-13T04:18:29.935Z,0.70
2022-09-13T04:20:58.099Z,0.90
2022-09-13T04:23:25.332Z,0.73
2022-09-13T04:25:52.291Z,0.98
2022-09-13T04:28:19.526Z,0.90
2022-09-13T04:30:47.099Z,0.57
2022-09-13T04:33:14.545Z,1.02
2022-09-13T04:35:41.485Z,0.70
2022-09-13T04:38:08.955Z,0.47
2022-09-13T04:40:36.630Z,0.57
2022-09-13T04:43:03.691Z,0.50
2022-09-13T04:45:30.686Z,0.43
2022-09-13T04:47:57.707Z,0.45
2022-09-13T04:50:24.770Z,0.40
2022-09-13T04:52:52.092Z,0.30
2022-09-13T04:55:18.970Z,0.63
2022-09-13T04:57:46.001Z,0.57
2022-09-13T05:00:13.239Z,0.57
2022-09-13T05:02:40.335Z,0.40
2022-09-13T05:05:08.801Z,0.30
2022-09-13T05:07:35.914Z,0.45
2022-09-13T05:10:04.544Z,0.40
2022-09-13T05:12:31.476Z,0.70
2022-09-13T05:14:58.400Z,0.50
2022-09-13T05:17:25.391Z,0.30
2022-09-13T05:19:52.324Z,0.50
2022-09-13T05:22:19.374Z,0.40
2022-09-13T05:24:46.515Z,0.80
2022-09-13T05:27:13.452Z,0.30
2022-09-13T05:29:40.353Z,0.30
2022-09-13T05:32:07.374Z,0.32
2022-09-13T05:34:34.398Z,0.50
2022-09-13T05:37:01.281Z,0.40
2022-09-13T05:39:36.488Z,0.50
2022-09-13T05:42:10.793Z,0.60
2022-09-13T05:44:37.945Z,0.70
2022-09-13T05:47:05.648Z,0.60
2022-09-13T05:49:32.600Z,0.70
2022-09-13T05:51:59.568Z,0.63
2022-09-13T05:54:26.471Z,0.70
2022-09-13T05:56:57.380Z,0.68
2022-09-13T05:59:24.505Z,0.60
2022-09-13T06:01:51.786Z,0.50
2022-09-13T06:04:18.932Z,0.65
2022-09-13T06:06:45.855Z,0.50
2022-09-13T06:09:13.115Z,0.63
2022-09-13T06:11:40.226Z,0.57
2022-09-13T06:14:07.382Z,0.80
2022-09-13T06:16:34.413Z,0.70
2022-09-13T06:19:01.427Z,0.65
2022-09-13T06:21:29.471Z,0.68
2022-09-13T06:23:56.587Z,0.95
2022-09-13T06:26:27.815Z,0.77
2022-09-13T06:28:55.975Z,0.90
2022-09-13T06:31:24.879Z,0.75
2022-09-13T06:34:00.196Z,0.65
2022-09-13T06:36:27.546Z,0.98
2022-09-13T06:38:55.882Z,0.60
2022-09-13T06:41:24.250Z,0.47
2022-09-13T06:43:55.894Z,0.90
2022-09-13T06:46:25.078Z,0.70
2022-09-13T06:48:52.818Z,0.70
2022-09-13T06:51:23.944Z,0.40
2022-09-13T06:53:51.978Z,0.30
2022-09-13T06:56:20.105Z,0.30
2022-09-13T06:58:48.755Z,0.52
2022-09-13T07:01:26.489Z,0.57
2022-09-13T07:03:55.145Z,1.30
2022-09-13T07:06:30.164Z,1.38
2022-09-13T07:08:58.379Z,0.82
2022-09-13T07:11:27.402Z,0.88
2022-09-13T07:13:55.939Z,0.30
2022-09-13T07:16:28.368Z,0.30
2022-09-13T07:18:56.814Z,0.45
2022-09-13T07:21:24.307Z,0.32
2022-09-13T07:23:51.884Z,0.28
2022-09-13T07:26:18.915Z,0.10
2022-09-13T07:28:49.238Z,0.20
2022-09-13T07:31:23.269Z,0.73
2022-09-13T07:33:55.210Z,0.82
2022-09-13T07:36:22.350Z,0.20
2022-09-13T07:38:49.513Z,0.40
2022-09-13T07:41:18.410Z,0.30
2022-09-13T07:43:45.732Z,0.20
2022-09-13T07:46:17.740Z,0.20
2022-09-13T07:48:45.632Z,0.52
2022-09-13T07:51:17.793Z,0.30
2022-09-13T07:53:45.605Z,0.30
2022-09-13T07:56:14.075Z,0.30
2022-09-13T07:58:41.833Z,0.20
2022-09-13T08:01:18.789Z,0.22
2022-09-13T08:03:50.632Z,0.10
2022-09-13T08:06:17.579Z,1.85
2022-09-13T08:08:44.780Z,0.20
2022-09-13T08:11:16.454Z,0.30
2022-09-13T08:13:43.794Z,0.30
2022-09-13T08:16:10.781Z,0.10
2022-09-13T08:18:37.867Z,0.40
2022-09-13T08:21:05.175Z,0.30
2022-09-13T08:23:34.101Z,0.30
2022-09-13T08:26:02.684Z,0.38
2022-09-13T08:28:31.569Z,0.63
2022-09-13T08:31:11.923Z,0.50
2022-09-13T08:33:43.093Z,0.60
2022-09-13T08:36:14.272Z,0.50
2022-09-13T08:38:50.848Z,0.60
2022-09-13T08:41:40.070Z,0.68
2022-09-13T08:44:35.732Z,1.10
2022-09-13T08:47:24.743Z,0.73
2022-09-13T08:49:56.347Z,1.00
2022-09-13T08:52:45.427Z,1.30
2022-09-13T08:55:24.285Z,0.98
2022-09-13T08:58:17.382Z,1.23
2022-09-13T09:00:47.045Z,1.30
2022-09-13T09:03:37.592Z,0.88
2022-09-13T09:06:12.393Z,1.25
2022-09-13T09:09:32.328Z,0.80
2022-09-13T09:12:11.548Z,1.10
2022-09-13T09:15:00.429Z,0.82
2022-09-13T09:17:39.499Z,0.80
2022-09-13T09:20:18.959Z,0.63
2022-09-13T09:22:46.076Z,0.40
2022-09-13T09:25:13.057Z,0.57
2022-09-13T09:27:40.204Z,0.55
2022-09-13T09:30:13.019Z,0.32
2022-09-13T09:32:54.299Z,0.70
2022-09-13T09:35:32.933Z,0.55
2022-09-13T09:38:05.771Z,0.77
2022-09-13T09:40:33.078Z,0.75
2022-09-13T09:43:00.357Z,0.63
2022-09-13T09:45:29.012Z,0.57
2022-09-13T09:47:56.788Z,0.57
2022-09-13T09:50:29.649Z,0.60
2022-09-13T09:53:14.782Z,0.50
2022-09-13T09:55:41.882Z,0.40
2022-09-13T09:58:09.724Z,0.55
2022-09-13T10:00:39.493Z,0.65
2022-09-13T10:03:09.061Z,0.47
2022-09-13T10:05:36.095Z,0.40
2022-09-13T10:08:06.998Z,0.73
2022-09-13T10:10:43.989Z,0.28
2022-09-13T10:13:21.659Z,0.32
2022-09-13T10:16:16.280Z,0.57
2022-09-13T10:18:44.877Z,0.30
2022-09-13T10:21:18.501Z,0.40
2022-09-13T10:23:50.596Z,0.55
2022-09-13T10:26:25.898Z,0.30
2022-09-13T10:29:07.871Z,0.40
2022-09-13T10:31:36.672Z,0.20
2022-09-13T10:34:05.606Z,0.28
2022-09-13T10:36:51.767Z,0.30
2022-09-13T10:39:21.388Z,0.20
2022-09-13T10:42:05.746Z,0.30
2022-09-13T10:44:35.818Z,0.32
2022-09-13T10:47:08.163Z,0.22
2022-09-13T10:49:53.989Z,0.30
2022-09-13T10:52:33.860Z,0.38
2022-09-13T10:55:19.093Z,0.77
2022-09-13T10:57:50.256Z,0.20
2022-09-13T11:00:39.441Z,0.47
2022-09-13T11:03:34.259Z,0.40
2022-09-13T11:06:17.072Z,0.20
2022-09-13T11:08:56.062Z,0.50
2022-09-13T11:11:24.839Z,0.50
2022-09-13T11:14:22.876Z,0.40
2022-09-13T11:16:55.744Z,0.35
2022-09-13T11:19:41.186Z,0.40
2022-09-13T11:22:27.683Z,0.93
2022-09-13T11:25:03.350Z,0.77
2022-09-13T11:27:50.608Z,0.80
2022-09-13T11:30:21.583Z,0.63
2022-09-13T11:33:03.876Z,0.85
2022-09-13T11:35:49.425Z,1.02
2022-09-13T11:38:34.963Z,0.82
2022-09-13T11:41:11.561Z,1.15
2022-09-13T11:43:54.787Z,1.20
2022-09-13T11:46:39.498Z,1.20
2022-09-13T11:49:19.073Z,1.17
2022-09-13T11:51:50.939Z,1.40
2022-09-13T11:54:27.300Z,0.95
2022-09-13T11:57:00.084Z,1.05
2022-09-13T11:59:46.324Z,1.20
2022-09-13T12:02:47.150Z,1.10
2022-09-13T12:05:22.481Z,1.33
2022-09-13T12:07:51.559Z,0.98
2022-09-13T12:10:30.249Z,0.90
2022-09-13T12:12:57.787Z,1.38
2022-09-13T12:15:38.378Z,1.63
2022-09-13T12:18:22.666Z,1.40
2022-09-13T12:21:10.369Z,0.98
2022-09-13T12:23:50.603Z,1.00
2022-09-13T12:26:21.124Z,1.38
2022-09-13T12:28:53.141Z,1.23
2022-09-13T12:31:23.365Z,1.20
2022-09-13T12:33:50.737Z,1.55
2022-09-13T12:36:28.726Z,2.35
2022-09-13T12:39:23.983Z,1.58
2022-09-13T12:42:18.479Z,2.05
2022-09-13T12:45:03.954Z,1.92
2022-09-13T12:47:34.311Z,0.93
2022-09-13T12:53:19.249Z,0.70
2022-09-13T12:55:52.736Z,0.57
2022-09-13T12:58:19.619Z,0.40
2022-09-13T13:00:48.588Z,0.50
2022-09-13T13:03:17.047Z,0.30
2022-09-13T13:05:51.741Z,0.63
2022-09-13T13:08:21.765Z,0.80
2022-09-13T13:11:08.170Z,0.52
2022-09-13T13:13:45.891Z,0.40
2022-09-13T13:16:30.525Z,0.63
2022-09-13T13:18:58.675Z,0.98
2022-09-13T13:21:34.507Z,0.80
2022-09-13T13:24:16.778Z,0.70
2022-09-13T13:26:50.530Z,0.50
2022-09-13T13:29:27.181Z,0.68
2022-09-13T13:32:07.793Z,0.60
2022-09-13T13:34:40.157Z,0.90
2022-09-13T13:37:10.372Z,0.50
2022-09-13T13:39:39.158Z,0.38
2022-09-13T13:42:14.406Z,0.40
2022-09-13T13:44:41.825Z,0.43
2022-09-13T13:47:08.703Z,0.60
2022-09-13T13:49:38.854Z,0.40
2022-09-13T13:52:09.114Z,0.50
2022-09-13T13:54:41.947Z,0.35
2022-09-13T13:57:28.489Z,0.73
2022-09-13T14:02:44.743Z,0.30
2022-09-13T14:05:17.884Z,0.20
2022-09-13T14:07:56.687Z,0.52
2022-09-13T14:10:31.326Z,0.25
2022-09-13T14:13:18.373Z,0.20
2022-09-13T14:16:05.578Z,0.10
2022-09-13T14:18:40.191Z,0.00
2022-09-13T14:21:22.632Z,0.03
2022-09-13T14:23:49.794Z,0.10
2022-09-13T14:26:16.774Z,0.63
2022-09-13T14:28:43.722Z,0.10
2022-09-13T14:31:18.047Z,0.10
2022-09-13T14:33:44.994Z,0.10
2022-09-13T14:36:18.591Z,0.10
2022-09-13T14:38:55.546Z,0.10
2022-09-13T14:41:29.795Z,0.30
2022-09-13T14:44:22.507Z,0.10
2022-09-13T14:46:56.259Z,0.00
2022-09-13T14:49:25.347Z,0.10
2022-09-13T14:51:59.746Z,0.08
2022-09-13T14:54:31.901Z,0.08
2022-09-13T14:56:59.889Z,0.00
2022-09-13T14:59:28.268Z,0.03
2022-09-13T15:01:57.633Z,0.00
2022-09-13T15:04:28.605Z,0.10
2022-09-13T15:07:20.220Z,0.10
2022-09-13T15:09:47.317Z,0.10
2022-09-13T15:12:28.123Z,0.00
2022-09-13T15:15:20.180Z,0.03
2022-09-13T15:18:00.440Z,0.22
2022-09-13T15:20:44.951Z,0.10
2022-09-13T15:23:25.900Z,0.20
2022-09-13T15:25:57.132Z,0.10
2022-09-13T15:28:27.292Z,0.25
2022-09-13T15:30:54.669Z,0.30
2022-09-13T15:33:32.396Z,0.00
2022-09-13T15:36:18.037Z,0.00
2022-09-13T15:39:09.856Z,0.07
2022-09-13T15:41:38.444Z,0.00
2022-09-13T15:44:07.010Z,0.00
2022-09-13T15:46:37.586Z,0.35
2022-09-13T15:49:05.818Z,0.10
2022-09-13T15:51:38.200Z,0.00
2022-09-13T15:54:10.651Z,0.10
2022-09-13T15:56:40.057Z,0.30
2022-09-13T15:59:07.146Z,0.00
2022-09-13T16:01:34.129Z,0.10
2022-09-13T16:04:03.944Z,0.05
2022-09-13T16:06:30.975Z,0.00
2022-09-13T16:09:00.109Z,0.10
2022-09-13T16:11:27.787Z,0.30
2022-09-13T16:13:56.388Z,0.10
2022-09-13T16:16:23.472Z,0.10
2022-09-13T16:18:50.507Z,0.00
2022-09-13T16:21:17.447Z,0.20
2022-09-13T16:23:44.341Z,0.00
2022-09-13T16:26:11.323Z,0.00
2022-09-13T16:28:38.236Z,0.10
2022-09-13T16:31:05.600Z,0.00
2022-09-13T16:33:32.737Z,0.10
2022-09-13T16:36:02.287Z,0.05
2022-09-13T16:38:29.552Z,0.03
2022-09-13T16:40:56.417Z,0.00
2022-09-13T16:43:23.344Z,0.10
2022-09-13T16:45:51.437Z,0.08
2022-09-13T16:48:18.355Z,0.10
2022-09-13T16:50:45.583Z,0.00
2022-09-13T16:53:12.763Z,0.10
2022-09-13T16:55:39.709Z,0.05
2022-09-13T16:58:06.788Z,0.00
2022-09-13T17:00:33.971Z,0.00
2022-09-13T17:03:01.239Z,0.00
2022-09-13T17:05:28.263Z,0.10
2022-09-13T17:07:55.283Z,0.15
2022-09-13T17:10:22.347Z,0.40
2022-09-13T17:12:49.312Z,0.00
2022-09-13T17:15:16.342Z,0.10
2022-09-13T17:17:43.536Z,0.00
2022-09-13T17:20:11.946Z,0.08
2022-09-13T17:22:39.035Z,0.00
2022-09-13T17:25:07.871Z,0.00
2022-09-13T17:27:35.089Z,0.20
2022-09-13T17:30:04.901Z,0.00
2022-09-13T17:32:31.906Z,0.08
2022-09-13T17:34:59.331Z,0.00
2022-09-13T17:37:26.323Z,0.28
2022-09-13T17:39:53.331Z,0.10
2022-09-13T17:42:23.300Z,0.20
2022-09-13T17:44:51.187Z,0.10
2022-09-13T17:47:18.122Z,0.00
2022-09-13T17:49:46.721Z,0.00
2022-09-13T17:52:13.756Z,0.00
2022-09-13T17:54:40.628Z,0.32
2022-09-13T17:57:07.782Z,0.00
2022-09-13T17:59:34.992Z,0.10
2022-09-13T18:02:02.138Z,0.00
2022-09-13T18:04:29.234Z,0.00
2022-09-13T18:06:56.179Z,0.00
2022-09-13T18:09:23.178Z,0.00
2022-09-13T18:11:50.513Z,0.28
2022-09-13T18:14:18.114Z,0.08
2022-09-13T18:16:45.315Z,0.20
2022-09-13T18:19:13.277Z,0.10
2022-09-13T18:21:40.712Z,0.10
2022-09-13T18:24:07.810Z,0.10
2022-09-13T18:26:35.062Z,0.00
2022-09-13T18:29:05.559Z,0.10
2022-09-13T18:31:33.331Z,0.10
2022-09-13T18:34:01.782Z,0.15
2022-09-13T18:36:29.322Z,0.10
2022-09-13T18:38:56.499Z,0.20
2022-09-13T18:41:25.175Z,0.40
2022-09-13T18:43:55.795Z,0.10
2022-09-13T18:46:26.326Z,0.20
2022-09-13T18:48:54.652Z,0.20
2022-09-13T18:51:22.683Z,0.20
2022-09-13T18:53:49.825Z,0.30
2022-09-13T18:56:17.743Z,0.20
2022-09-13T18:58:45.127Z,0.57
2022-09-13T19:01:14.164Z,0.25
2022-09-13T19:03:53.779Z,0.30
2022-09-13T19:06:34.765Z,0.10
2022-09-13T19:09:01.983Z,0.15
2022-09-13T19:11:52.586Z,0.30
2022-09-13T19:14:23.171Z,0.10
2022-09-13T19:16:50.670Z,0.28
2022-09-13T19:19:19.117Z,0.40
2022-09-13T19:21:46.223Z,0.13
2022-09-13T19:24:18.418Z,0.50
2022-09-13T19:26:46.523Z,0.10
2022-09-13T19:29:14.945Z,0.10
2022-09-13T19:31:43.798Z,0.10
2022-09-13T19:34:11.031Z,0.10
2022-09-13T19:36:39.306Z,0.40
2022-09-13T19:39:08.895Z,0.10
2022-09-13T19:41:36.792Z,0.00
2022-09-13T19:44:04.300Z,0.00
2022-09-13T19:46:37.771Z,0.10
2022-09-13T19:49:06.742Z,0.30
2022-09-13T19:51:35.628Z,0.00
2022-09-13T19:54:02.970Z,0.10
2022-09-13T19:56:33.957Z,0.13
2022-09-13T19:59:01.242Z,0.10
2022-09-13T20:01:32.768Z,0.00
2022-09-13T20:04:01.201Z,0.10
2022-09-13T20:06:29.100Z,0.10
2022-09-13T20:08:59.731Z,0.75
2022-09-13T20:11:29.134Z,0.10
2022-09-13T20:13:59.513Z,0.20
2022-09-13T20:16:28.516Z,0.10
2022-09-13T20:18:57.079Z,0.20
2022-09-13T20:21:24.542Z,0.10
2022-09-13T20:23:58.964Z,0.30
2022-09-13T20:26:26.464Z,0.05
2022-09-13T20:29:02.414Z,0.10
2022-09-13T20:31:30.312Z,0.08
2022-09-13T20:33:58.363Z,0.03
2022-09-13T20:36:25.937Z,0.00
2022-09-13T20:38:54.668Z,0.05
2022-09-13T20:41:21.691Z,0.10
2022-09-13T20:43:49.760Z,0.10
2022-09-13T20:46:17.266Z,0.10
2022-09-13T20:48:44.615Z,0.10
2022-09-13T20:51:13.276Z,0.10
2022-09-13T20:53:41.002Z,0.10
2022-09-13T20:56:17.755Z,0.10
2022-09-13T20:58:45.325Z,0.20
2022-09-13T21:01:20.695Z,0.10
2022-09-13T21:03:52.276Z,0.40
2022-09-13T21:06:20.183Z,0.20
2022-09-13T21:08:49.535Z,0.38
2022-09-13T21:11:20.503Z,0.25
2022-09-13T21:13:59.138Z,0.28
2022-09-13T21:16:30.455Z,0.10
2022-09-13T21:18:57.649Z,0.22
2022-09-13T21:21:26.344Z,0.13
2022-09-13T21:23:54.709Z,0.50
2022-09-13T21:26:22.874Z,0.10
2022-09-13T21:28:50.023Z,0.22
2022-09-13T21:31:30.591Z,0.10
2022-09-13T21:33:59.294Z,0.10
2022-09-13T21:36:26.646Z,0.10
2022-09-13T21:38:54.472Z,0.20
2022-09-13T21:41:21.618Z,0.28
2022-09-13T21:43:48.854Z,0.10
2022-09-13T21:46:22.377Z,0.40
2022-09-13T21:48:51.808Z,0.35
2022-09-13T21:51:22.185Z,0.20
2022-09-13T21:53:51.464Z,0.38
2022-09-13T21:56:24.957Z,0.68
2022-09-13T21:59:03.240Z,0.40
2022-09-13T22:01:32.239Z,0.10
2022-09-13T22:03:59.485Z,0.20
2022-09-13T22:06:30.201Z,0.10
2022-09-13T22:09:00.460Z,0.30
2022-09-13T22:11:29.018Z,0.25
2022-09-13T22:13:56.436Z,0.40
2022-09-13T22:16:28.352Z,0.15
2022-09-13T22:18:58.411Z,0.63
2022-09-13T22:21:27.291Z,0.20
2022-09-13T22:23:54.447Z,0.47
2022-09-13T22:26:23.375Z,0.28
2022-09-13T22:28:50.606Z,0.28
2022-09-13T22:31:20.134Z,0.20
2022-09-13T22:33:47.366Z,0.10
2022-09-13T22:36:15.237Z,0.30
2022-09-13T22:38:43.085Z,0.20
2022-09-13T22:41:13.090Z,0.70
2022-09-13T22:43:40.231Z,0.20
2022-09-13T22:46:14.232Z,0.40
2022-09-13T22:48:41.468Z,0.20
2022-09-13T22:51:09.898Z,0.52
2022-09-13T22:53:39.748Z,0.20
2022-09-13T22:56:10.257Z,0.20
2022-09-13T22:58:37.584Z,0.20
2022-09-13T23:01:12.790Z,0.30
2022-09-13T23:03:40.853Z,0.30
2022-09-13T23:06:08.121Z,0.20
2022-09-13T23:08:35.256Z,0.40
2022-09-13T23:11:24.974Z,0.13
2022-09-13T23:13:52.877Z,0.40
2022-09-13T23:16:31.310Z,0.10
2022-09-13T23:18:58.455Z,0.20
2022-09-13T23:21:27.105Z,0.17
2022-09-13T23:23:54.313Z,0.30
2022-09-13T23:26:22.784Z,0.20
2022-09-13T23:28:56.374Z,0.30
2022-09-13T23:31:25.271Z,0.22
2022-09-13T23:33:54.053Z,0.20
2022-09-13T23:36:23.204Z,0.22
2022-09-13T23:38:51.727Z,0.20
2022-09-13T23:41:19.182Z,0.20
2022-09-13T23:43:46.388Z,0.10
2022-09-13T23:46:13.665Z,0.20
2022-09-13T23:48:44.367Z,0.60
2022-09-13T23:51:13.190Z,0.10
2022-09-13T23:53:40.495Z,0.85
2022-09-13T23:56:08.050Z,0.20
2022-09-13T23:58:35.991Z,0.50
